Terminal Aerodrome Forecast
Issued by NWS Greer, SC

Home | Current Version | Previous Version | Text Only | Print | Product List | Glossary On
Versions: 1 2 3 4 5 6 7 8 9 10 11 12
443
FTUS42 KGSP 291120
TAFGSP
TAF
KGSP 291120Z 2912/3012 21004KT P6SM FEW070
     FM291600 18007KT P6SM SCT100
     FM300000 18005KT P6SM BKN050 PROB30 3003/3006 4SM -SHRA OVC025
     FM300600 19003KT P6SM BKN008 PROB30 3006/3007 4SM -SHRA OVC003
     FM300700 19003KT P6SM BKN003 PROB30 3007/3008 4SM -SHRA
     FM301000 16003KT 4SM BR BKN003 PROB30 3010/3012 2SM -SHRA BR=

USA.gov is the U.S. government's official web portal to all federal, state and local government web resources and services.